sensor_id;sensor_type;location;lat;lon;timestamp;pressure;altitude;pressure_sealevel;temperature;humidity
65329;BME280;51941;52.210;5.158;2023-06-10T00:01:24;101463.63;;;20.35;64.66
65329;BME280;51941;52.210;5.158;2023-06-10T00:03:51;101451.03;;;20.30;64.57
65329;BME280;51941;52.210;5.158;2023-06-10T00:06:18;101453.75;;;20.25;65.08
65329;BME280;51941;52.210;5.158;2023-06-10T00:08:46;101457.53;;;20.24;65.46
65329;BME280;51941;52.210;5.158;2023-06-10T00:11:13;101463.44;;;20.21;65.83
65329;BME280;51941;52.210;5.158;2023-06-10T00:13:40;101465.34;;;20.16;66.18
65329;BME280;51941;52.210;5.158;2023-06-10T00:16:07;101453.25;;;20.13;66.05
65329;BME280;51941;52.210;5.158;2023-06-10T00:18:33;101455.72;;;20.10;66.77
65329;BME280;51941;52.210;5.158;2023-06-10T00:21:02;101456.00;;;20.03;66.82
65329;BME280;51941;52.210;5.158;2023-06-10T00:23:30;101454.44;;;19.97;66.62
65329;BME280;51941;52.210;5.158;2023-06-10T00:25:59;101459.56;;;19.98;66.64
65329;BME280;51941;52.210;5.158;2023-06-10T00:28:26;101459.81;;;19.97;66.80
65329;BME280;51941;52.210;5.158;2023-06-10T00:30:55;101463.06;;;19.94;66.76
65329;BME280;51941;52.210;5.158;2023-06-10T00:33:22;101454.22;;;19.88;66.63
65329;BME280;51941;52.210;5.158;2023-06-10T00:35:49;101460.94;;;19.86;66.38
65329;BME280;51941;52.210;5.158;2023-06-10T00:38:16;101462.34;;;19.83;66.42
65329;BME280;51941;52.210;5.158;2023-06-10T00:40:43;101465.56;;;19.80;66.24
65329;BME280;51941;52.210;5.158;2023-06-10T00:43:11;101466.63;;;19.79;66.15
65329;BME280;51941;52.210;5.158;2023-06-10T00:45:38;101460.22;;;19.75;66.11
65329;BME280;51941;52.210;5.158;2023-06-10T00:48:05;101464.53;;;19.71;66.09
65329;BME280;51941;52.210;5.158;2023-06-10T00:50:32;101462.69;;;19.67;65.95
65329;BME280;51941;52.210;5.158;2023-06-10T00:53:00;101464.56;;;19.61;65.61
65329;BME280;51941;52.210;5.158;2023-06-10T00:55:29;101465.38;;;19.61;65.52
65329;BME280;51941;52.210;5.158;2023-06-10T00:57:57;101464.34;;;19.57;65.57
65329;BME280;51941;52.210;5.158;2023-06-10T01:00:26;101460.31;;;19.55;65.33
65329;BME280;51941;52.210;5.158;2023-06-10T01:02:53;101456.28;;;19.52;65.07
65329;BME280;51941;52.210;5.158;2023-06-10T01:05:20;101454.94;;;19.50;65.00
65329;BME280;51941;52.210;5.158;2023-06-10T01:07:56;101455.50;;;19.47;65.00
65329;BME280;51941;52.210;5.158;2023-06-10T01:10:30;101457.41;;;19.41;64.82
65329;BME280;51941;52.210;5.158;2023-06-10T01:13:00;101467.34;;;19.41;64.76
65329;BME280;51941;52.210;5.158;2023-06-10T01:15:31;101462.78;;;19.36;64.58
65329;BME280;51941;52.210;5.158;2023-06-10T01:17:59;101469.25;;;19.35;64.38
65329;BME280;51941;52.210;5.158;2023-06-10T01:20:30;101470.56;;;19.33;64.54
65329;BME280;51941;52.210;5.158;2023-06-10T01:22:59;101476.22;;;19.26;64.36
65329;BME280;51941;52.210;5.158;2023-06-10T01:25:29;101471.38;;;19.23;64.14
65329;BME280;51941;52.210;5.158;2023-06-10T01:28:02;101477.28;;;19.25;63.89
65329;BME280;51941;52.210;5.158;2023-06-10T01:30:36;101468.19;;;19.21;63.71
65329;BME280;51941;52.210;5.158;2023-06-10T01:33:08;101478.38;;;19.19;63.91
65329;BME280;51941;52.210;5.158;2023-06-10T01:35:36;101472.22;;;19.18;64.04
65329;BME280;51941;52.210;5.158;2023-06-10T01:38:06;101474.63;;;19.15;63.81
65329;BME280;51941;52.210;5.158;2023-06-10T01:40:33;101473.31;;;19.12;64.07
65329;BME280;51941;52.210;5.158;2023-06-10T01:43:01;101469.28;;;19.10;63.85
65329;BME280;51941;52.210;5.158;2023-06-10T01:45:28;101472.78;;;19.10;63.76
65329;BME280;51941;52.210;5.158;2023-06-10T01:47:55;101470.88;;;19.06;64.25
65329;BME280;51941;52.210;5.158;2023-06-10T01:50:21;101462.84;;;19.01;64.53
65329;BME280;51941;52.210;5.158;2023-06-10T01:52:48;101471.97;;;19.00;64.35
65329;BME280;51941;52.210;5.158;2023-06-10T01:55:16;101475.50;;;18.95;64.92
65329;BME280;51941;52.210;5.158;2023-06-10T01:57:43;101472.28;;;18.93;65.09
65329;BME280;51941;52.210;5.158;2023-06-10T02:00:11;101472.53;;;18.91;65.35
65329;BME280;51941;52.210;5.158;2023-06-10T02:02:41;101469.88;;;18.86;65.79
65329;BME280;51941;52.210;5.158;2023-06-10T02:05:08;101470.69;;;18.87;65.94
65329;BME280;51941;52.210;5.158;2023-06-10T02:07:35;101479.25;;;18.84;66.34
65329;BME280;51941;52.210;5.158;2023-06-10T02:10:01;101466.13;;;18.77;66.70
65329;BME280;51941;52.210;5.158;2023-06-10T02:12:30;101473.63;;;18.75;67.01
65329;BME280;51941;52.210;5.158;2023-06-10T02:14:56;101474.16;;;18.77;67.13
65329;BME280;51941;52.210;5.158;2023-06-10T02:17:23;101472.00;;;18.74;67.42
65329;BME280;51941;52.210;5.158;2023-06-10T02:19:49;101479.78;;;18.71;67.96
65329;BME280;51941;52.210;5.158;2023-06-10T02:22:20;101479.28;;;18.69;68.25
65329;BME280;51941;52.210;5.158;2023-06-10T02:24:47;101478.72;;;18.67;68.48
65329;BME280;51941;52.210;5.158;2023-06-10T02:27:14;101488.09;;;18.64;68.70
65329;BME280;51941;52.210;5.158;2023-06-10T02:29:42;101493.47;;;18.64;69.02
65329;BME280;51941;52.210;5.158;2023-06-10T02:32:10;101486.25;;;18.60;69.24
65329;BME280;51941;52.210;5.158;2023-06-10T02:34:37;101492.66;;;18.59;69.67
65329;BME280;51941;52.210;5.158;2023-06-10T02:37:05;101499.91;;;18.58;70.05
65329;BME280;51941;52.210;5.158;2023-06-10T02:39:32;101492.66;;;18.53;70.35
65329;BME280;51941;52.210;5.158;2023-06-10T02:42:00;101492.13;;;18.51;71.29
65329;BME280;51941;52.210;5.158;2023-06-10T02:44:27;101489.72;;;18.50;71.65
65329;BME280;51941;52.210;5.158;2023-06-10T02:46:55;101486.72;;;18.46;72.09
65329;BME280;51941;52.210;5.158;2023-06-10T02:49:21;101486.19;;;18.44;72.34
65329;BME280;51941;52.210;5.158;2023-06-10T02:51:49;101493.72;;;18.42;72.92
65329;BME280;51941;52.210;5.158;2023-06-10T02:54:18;101493.16;;;18.40;73.33
65329;BME280;51941;52.210;5.158;2023-06-10T02:56:45;101488.31;;;18.37;73.67
65329;BME280;51941;52.210;5.158;2023-06-10T02:59:18;101486.47;;;18.33;74.30
65329;BME280;51941;52.210;5.158;2023-06-10T03:01:45;101490.72;;;18.29;75.00
65329;BME280;51941;52.210;5.158;2023-06-10T03:04:13;101488.59;;;18.26;75.81
65329;BME280;51941;52.210;5.158;2023-06-10T03:06:48;101491.00;;;18.22;76.23
65329;BME280;51941;52.210;5.158;2023-06-10T03:09:21;101485.88;;;18.21;76.46
65329;BME280;51941;52.210;5.158;2023-06-10T03:11:51;101479.47;;;18.16;77.16
65329;BME280;51941;52.210;5.158;2023-06-10T03:14:18;101474.34;;;18.10;77.36
65329;BME280;51941;52.210;5.158;2023-06-10T03:16:45;101490.97;;;18.12;77.95
65329;BME280;51941;52.210;5.158;2023-06-10T03:19:14;101488.56;;;18.10;78.47
65329;BME280;51941;52.210;5.158;2023-06-10T03:21:49;101489.09;;;18.07;78.78
65329;BME280;51941;52.210;5.158;2023-06-10T03:24:20;101486.13;;;18.04;78.92
65329;BME280;51941;52.210;5.158;2023-06-10T03:26:47;101493.63;;;18.02;79.32
65329;BME280;51941;52.210;5.158;2023-06-10T03:29:16;101498.97;;;18.02;79.20
65329;BME280;51941;52.210;5.158;2023-06-10T03:31:43;101492.00;;;18.01;79.80
65329;BME280;51941;52.210;5.158;2023-06-10T03:34:10;101492.00;;;17.96;80.24
65329;BME280;51941;52.210;5.158;2023-06-10T03:36:38;101492.56;;;17.98;79.91
65329;BME280;51941;52.210;5.158;2023-06-10T03:39:08;101497.09;;;17.97;80.35
65329;BME280;51941;52.210;5.158;2023-06-10T03:41:36;101489.84;;;17.93;80.57
65329;BME280;51941;52.210;5.158;2023-06-10T03:44:05;101497.63;;;17.94;80.77
65329;BME280;51941;52.210;5.158;2023-06-10T03:46:32;101499.22;;;17.95;80.99
65329;BME280;51941;52.210;5.158;2023-06-10T03:48:59;101497.88;;;17.93;81.27
65329;BME280;51941;52.210;5.158;2023-06-10T03:51:27;101506.47;;;17.90;81.76
65329;BME280;51941;52.210;5.158;2023-06-10T03:53:55;101500.56;;;17.88;82.07
65329;BME280;51941;52.210;5.158;2023-06-10T03:56:22;101502.97;;;17.94;81.69
65329;BME280;51941;52.210;5.158;2023-06-10T03:58:49;101501.63;;;17.92;82.24
65329;BME280;51941;52.210;5.158;2023-06-10T04:01:16;101493.59;;;17.87;82.40
65329;BME280;51941;52.210;5.158;2023-06-10T04:03:46;101503.50;;;17.91;82.33
65329;BME280;51941;52.210;5.158;2023-06-10T04:06:14;101511.53;;;17.91;82.47
65329;BME280;51941;52.210;5.158;2023-06-10T04:08:41;101511.53;;;17.91;83.02
65329;BME280;51941;52.210;5.158;2023-06-10T04:11:09;101513.13;;;17.92;83.23
65329;BME280;51941;52.210;5.158;2023-06-10T04:13:36;101511.53;;;17.91;83.15
65329;BME280;51941;52.210;5.158;2023-06-10T04:16:03;101508.63;;;17.98;82.95
65329;BME280;51941;52.210;5.158;2023-06-10T04:18:30;101516.66;;;17.98;83.25
65329;BME280;51941;52.210;5.158;2023-06-10T04:21:01;101509.13;;;18.00;83.60
65329;BME280;51941;52.210;5.158;2023-06-10T04:23:29;101518.81;;;18.06;83.76
65329;BME280;51941;52.210;5.158;2023-06-10T04:25:56;101520.69;;;18.05;83.71
65329;BME280;51941;52.210;5.158;2023-06-10T04:28:25;101514.81;;;18.08;84.27
65329;BME280;51941;52.210;5.158;2023-06-10T04:30:53;101523.94;;;18.28;84.22
65329;BME280;51941;52.210;5.158;2023-06-10T04:33:20;101523.25;;;18.78;81.99
65329;BME280;51941;52.210;5.158;2023-06-10T04:35:47;101524.53;;;19.26;78.96
65329;BME280;51941;52.210;5.158;2023-06-10T04:38:14;101522.63;;;19.57;76.50
65329;BME280;51941;52.210;5.158;2023-06-10T04:40:42;101518.16;;;19.91;74.08
65329;BME280;51941;52.210;5.158;2023-06-10T04:43:10;101528.19;;;20.30;71.77
65329;BME280;51941;52.210;5.158;2023-06-10T04:45:38;101526.63;;;20.63;69.19
65329;BME280;51941;52.210;5.158;2023-06-10T04:48:06;101535.31;;;20.84;67.17
65329;BME280;51941;52.210;5.158;2023-06-10T04:50:33;101533.28;;;21.04;65.71
65329;BME280;51941;52.210;5.158;2023-06-10T04:52:59;101539.28;;;21.25;63.96
65329;BME280;51941;52.210;5.158;2023-06-10T04:55:26;101539.56;;;21.47;62.56
65329;BME280;51941;52.210;5.158;2023-06-10T04:57:53;101540.44;;;21.67;60.84
65329;BME280;51941;52.210;5.158;2023-06-10T05:00:20;101545.75;;;21.77;59.94
65329;BME280;51941;52.210;5.158;2023-06-10T05:02:48;101541.75;;;21.93;59.33
65329;BME280;51941;52.210;5.158;2023-06-10T05:05:15;101537.19;;;22.12;58.57
65329;BME280;51941;52.210;5.158;2023-06-10T05:07:42;101544.63;;;22.39;57.48
65329;BME280;51941;52.210;5.158;2023-06-10T05:10:09;101542.81;;;22.53;56.31
65329;BME280;51941;52.210;5.158;2023-06-10T05:12:38;101544.41;;;22.73;55.73
65329;BME280;51941;52.210;5.158;2023-06-10T05:15:05;101542.94;;;22.94;54.28
65329;BME280;51941;52.210;5.158;2023-06-10T05:17:32;101540.06;;;23.05;54.13
65329;BME280;51941;52.210;5.158;2023-06-10T05:20:01;101541.69;;;23.19;53.38
65329;BME280;51941;52.210;5.158;2023-06-10T05:22:28;101539.06;;;23.33;52.98
65329;BME280;51941;52.210;5.158;2023-06-10T05:24:55;101542.75;;;23.51;52.13
65329;BME280;51941;52.210;5.158;2023-06-10T05:27:22;101544.97;;;23.62;51.91
65329;BME280;51941;52.210;5.158;2023-06-10T05:29:49;101535.53;;;23.73;51.32
65329;BME280;51941;52.210;5.158;2023-06-10T05:32:16;101548.16;;;23.92;50.75
65329;BME280;51941;52.210;5.158;2023-06-10T05:34:43;101547.16;;;24.01;50.05
65329;BME280;51941;52.210;5.158;2023-06-10T05:37:12;101538.94;;;24.06;50.13
65329;BME280;51941;52.210;5.158;2023-06-10T05:39:39;101548.72;;;24.16;49.67
65329;BME280;51941;52.210;5.158;2023-06-10T05:42:07;101547.47;;;24.36;48.94
65329;BME280;51941;52.210;5.158;2023-06-10T05:44:34;101549.34;;;24.35;48.85
65329;BME280;51941;52.210;5.158;2023-06-10T05:47:02;101556.59;;;24.26;49.27
65329;BME280;51941;52.210;5.158;2023-06-10T05:49:29;101550.16;;;24.36;49.07
65329;BME280;51941;52.210;5.158;2023-06-10T05:51:57;101549.06;;;24.01;49.95
65329;BME280;51941;52.210;5.158;2023-06-10T05:54:25;101554.16;;;24.02;50.52
65329;BME280;51941;52.210;5.158;2023-06-10T05:56:52;101555.00;;;24.25;49.70
65329;BME280;51941;52.210;5.158;2023-06-10T05:59:19;101547.53;;;24.44;48.83
65329;BME280;51941;52.210;5.158;2023-06-10T06:01:48;101547.78;;;24.57;48.47
65329;BME280;51941;52.210;5.158;2023-06-10T06:04:15;101559.94;;;24.81;48.44
65329;BME280;51941;52.210;5.158;2023-06-10T06:06:41;101543.94;;;24.94;47.50
65329;BME280;51941;52.210;5.158;2023-06-10T06:09:08;101555.50;;;25.16;47.16
65329;BME280;51941;52.210;5.158;2023-06-10T06:11:36;101558.38;;;25.42;46.01
65329;BME280;51941;52.210;5.158;2023-06-10T06:14:03;101552.34;;;25.45;45.39
65329;BME280;51941;52.210;5.158;2023-06-10T06:16:29;101559.88;;;25.66;45.67
65329;BME280;51941;52.210;5.158;2023-06-10T06:18:56;101562.94;;;25.73;44.78
65329;BME280;51941;52.210;5.158;2023-06-10T06:21:23;101555.63;;;25.82;44.33
65329;BME280;51941;52.210;5.158;2023-06-10T06:23:49;101558.41;;;25.99;44.13
65329;BME280;51941;52.210;5.158;2023-06-10T06:26:16;101554.25;;;26.10;43.68
65329;BME280;51941;52.210;5.158;2023-06-10T06:28:44;101550.75;;;26.27;43.38
65329;BME280;51941;52.210;5.158;2023-06-10T06:31:10;101550.91;;;26.48;43.19
65329;BME280;51941;52.210;5.158;2023-06-10T06:33:37;101552.50;;;26.75;42.45
65329;BME280;51941;52.210;5.158;2023-06-10T06:36:05;101550.06;;;26.90;42.00
65329;BME280;51941;52.210;5.158;2023-06-10T06:38:31;101553.03;;;27.15;41.54
65329;BME280;51941;52.210;5.158;2023-06-10T06:40:59;101546.09;;;27.43;41.10
65329;BME280;51941;52.210;5.158;2023-06-10T06:43:28;101545.13;;;27.48;40.37
65329;BME280;51941;52.210;5.158;2023-06-10T06:46:03;101548.72;;;27.60;40.05
65329;BME280;51941;52.210;5.158;2023-06-10T06:48:30;101558.50;;;27.53;40.34
65329;BME280;51941;52.210;5.158;2023-06-10T06:50:56;101554.94;;;27.61;40.35
65329;BME280;51941;52.210;5.158;2023-06-10T06:53:24;101559.19;;;27.79;39.94
65329;BME280;51941;52.210;5.158;2023-06-10T06:55:51;101556.75;;;27.86;39.34
65329;BME280;51941;52.210;5.158;2023-06-10T06:58:18;101552.06;;;27.66;39.90
65329;BME280;51941;52.210;5.158;2023-06-10T07:00:44;101558.16;;;27.92;39.84
65329;BME280;51941;52.210;5.158;2023-06-10T07:03:12;101561.03;;;28.16;39.23
65329;BME280;51941;52.210;5.158;2023-06-10T07:05:39;101566.31;;;28.42;38.78
65329;BME280;51941;52.210;5.158;2023-06-10T07:08:06;101559.31;;;28.53;38.71
65329;BME280;51941;52.210;5.158;2023-06-10T07:10:32;101567.00;;;28.72;38.12
65329;BME280;51941;52.210;5.158;2023-06-10T07:12:59;101564.81;;;28.99;38.19
65329;BME280;51941;52.210;5.158;2023-06-10T07:15:26;101564.97;;;29.26;37.17
65329;BME280;51941;52.210;5.158;2023-06-10T07:17:52;101560.31;;;29.27;36.87
65329;BME280;51941;52.210;5.158;2023-06-10T07:20:31;101563.03;;;29.27;37.12
65329;BME280;51941;52.210;5.158;2023-06-10T07:22:58;101568.28;;;29.44;37.09
65329;BME280;51941;52.210;5.158;2023-06-10T07:25:24;101560.78;;;29.53;36.39
65329;BME280;51941;52.210;5.158;2023-06-10T07:27:51;101569.22;;;29.60;36.15
65329;BME280;51941;52.210;5.158;2023-06-10T07:30:18;101572.97;;;29.68;36.28
65329;BME280;51941;52.210;5.158;2023-06-10T07:32:44;101573.75;;;29.81;36.08
65329;BME280;51941;52.210;5.158;2023-06-10T07:35:11;101570.13;;;29.77;35.80
65329;BME280;51941;52.210;5.158;2023-06-10T07:37:40;101576.00;;;29.79;36.08
65329;BME280;51941;52.210;5.158;2023-06-10T07:40:07;101581.25;;;29.96;35.51
65329;BME280;51941;52.210;5.158;2023-06-10T07:42:35;101579.41;;;30.00;35.36
65329;BME280;51941;52.210;5.158;2023-06-10T07:45:02;101573.28;;;29.91;35.32
65329;BME280;51941;52.210;5.158;2023-06-10T07:47:29;101578.97;;;30.10;35.01
65329;BME280;51941;52.210;5.158;2023-06-10T07:49:56;101589.50;;;30.24;34.43
65329;BME280;51941;52.210;5.158;2023-06-10T07:52:22;101594.16;;;30.23;34.74
65329;BME280;51941;52.210;5.158;2023-06-10T07:54:50;101589.13;;;30.37;34.16
65329;BME280;51941;52.210;5.158;2023-06-10T07:57:18;101587.34;;;30.29;34.65
65329;BME280;51941;52.210;5.158;2023-06-10T07:59:45;101590.06;;;30.05;34.57
65329;BME280;51941;52.210;5.158;2023-06-10T08:02:12;101584.28;;;30.19;34.53
65329;BME280;51941;52.210;5.158;2023-06-10T08:04:39;101582.91;;;30.25;34.09
65329;BME280;51941;52.210;5.158;2023-06-10T08:07:05;101593.38;;;30.63;34.00
65329;BME280;51941;52.210;5.158;2023-06-10T08:09:32;101592.16;;;30.76;33.50
65329;BME280;51941;52.210;5.158;2023-06-10T08:12:00;101588.69;;;30.91;33.15
65329;BME280;51941;52.210;5.158;2023-06-10T08:14:27;101592.28;;;30.80;33.30
65329;BME280;51941;52.210;5.158;2023-06-10T08:16:53;101588.25;;;31.05;33.03
65329;BME280;51941;52.210;5.158;2023-06-10T08:19:20;101595.69;;;31.20;32.87
65329;BME280;51941;52.210;5.158;2023-06-10T08:21:47;101594.66;;;31.25;33.10
65329;BME280;51941;52.210;5.158;2023-06-10T08:24:13;101584.16;;;31.27;32.22
65329;BME280;51941;52.210;5.158;2023-06-10T08:26:41;101584.81;;;31.08;32.48
65329;BME280;51941;52.210;5.158;2023-06-10T08:29:11;101593.09;;;31.11;32.54
65329;BME280;51941;52.210;5.158;2023-06-10T08:31:41;101590.69;;;31.22;32.69
65329;BME280;51941;52.210;5.158;2023-06-10T08:34:08;101589.41;;;31.04;32.57
65329;BME280;51941;52.210;5.158;2023-06-10T08:36:34;101589.50;;;31.07;32.41
65329;BME280;51941;52.210;5.158;2023-06-10T08:39:02;101580.09;;;31.21;32.32
65329;BME280;51941;52.210;5.158;2023-06-10T08:41:30;101584.53;;;30.97;32.50
65329;BME280;51941;52.210;5.158;2023-06-10T08:44:04;101580.50;;;30.91;32.97
65329;BME280;51941;52.210;5.158;2023-06-10T08:46:36;101591.59;;;30.42;33.39
65329;BME280;51941;52.210;5.158;2023-06-10T08:49:05;101583.66;;;29.85;33.31
65329;BME280;51941;52.210;5.158;2023-06-10T08:51:32;101579.16;;;29.20;34.71
65329;BME280;51941;52.210;5.158;2023-06-10T08:54:05;101581.75;;;28.71;35.92
65329;BME280;51941;52.210;5.158;2023-06-10T08:56:39;101575.91;;;28.40;36.07
65329;BME280;51941;52.210;5.158;2023-06-10T08:59:06;101576.97;;;28.27;36.25
65329;BME280;51941;52.210;5.158;2023-06-10T09:01:33;101586.41;;;28.08;36.35
65329;BME280;51941;52.210;5.158;2023-06-10T09:04:02;101583.25;;;27.98;36.94
65329;BME280;51941;52.210;5.158;2023-06-10T09:06:30;101581.81;;;28.00;37.50
65329;BME280;51941;52.210;5.158;2023-06-10T09:08:59;101586.66;;;28.15;37.51
65329;BME280;51941;52.210;5.158;2023-06-10T09:11:25;101582.34;;;28.35;37.17
65329;BME280;51941;52.210;5.158;2023-06-10T09:13:52;101576.41;;;28.42;36.79
65329;BME280;51941;52.210;5.158;2023-06-10T09:16:19;101567.75;;;28.19;37.05
65329;BME280;51941;52.210;5.158;2023-06-10T09:18:46;101577.09;;;28.09;37.51
65329;BME280;51941;52.210;5.158;2023-06-10T09:21:15;101581.75;;;28.09;37.28
65329;BME280;51941;52.210;5.158;2023-06-10T09:23:43;101575.09;;;27.98;37.43
65329;BME280;51941;52.210;5.158;2023-06-10T09:26:10;101578.34;;;27.91;37.65
65329;BME280;51941;52.210;5.158;2023-06-10T09:28:37;101583.78;;;27.91;38.11
65329;BME280;51941;52.210;5.158;2023-06-10T09:31:06;101586.69;;;27.86;37.71
65329;BME280;51941;52.210;5.158;2023-06-10T09:33:37;101575.69;;;27.83;37.57
65329;BME280;51941;52.210;5.158;2023-06-10T09:36:05;101579.00;;;27.88;37.62
65329;BME280;51941;52.210;5.158;2023-06-10T09:38:34;101583.09;;;27.94;38.05
65329;BME280;51941;52.210;5.158;2023-06-10T09:41:00;101581.00;;;28.00;37.59
65329;BME280;51941;52.210;5.158;2023-06-10T09:43:39;101577.34;;;27.96;37.64
65329;BME280;51941;52.210;5.158;2023-06-10T09:46:06;101582.66;;;27.92;37.71
65329;BME280;51941;52.210;5.158;2023-06-10T09:48:34;101574.69;;;27.87;37.54
65329;BME280;51941;52.210;5.158;2023-06-10T09:51:01;101575.75;;;27.95;37.63
65329;BME280;51941;52.210;5.158;2023-06-10T09:53:34;101577.28;;;28.04;37.34
65329;BME280;51941;52.210;5.158;2023-06-10T09:56:01;101577.28;;;28.04;37.10
65329;BME280;51941;52.210;5.158;2023-06-10T09:58:37;101595.63;;;28.16;37.08
65329;BME280;51941;52.210;5.158;2023-06-10T10:01:09;101579.50;;;28.11;37.02
65329;BME280;51941;52.210;5.158;2023-06-10T10:03:43;101577.50;;;27.99;37.50
65329;BME280;51941;52.210;5.158;2023-06-10T10:06:11;101573.16;;;27.98;36.90
65329;BME280;51941;52.210;5.158;2023-06-10T10:08:39;101582.88;;;28.08;36.80
65329;BME280;51941;52.210;5.158;2023-06-10T10:11:06;101577.44;;;28.08;36.19
65329;BME280;51941;52.210;5.158;2023-06-10T10:13:34;101568.72;;;28.14;36.28
65329;BME280;51941;52.210;5.158;2023-06-10T10:16:04;101565.75;;;28.28;36.31
65329;BME280;51941;52.210;5.158;2023-06-10T10:18:35;101568.28;;;28.33;35.67
65329;BME280;51941;52.210;5.158;2023-06-10T10:21:11;101564.69;;;28.41;35.43
65329;BME280;51941;52.210;5.158;2023-06-10T10:23:44;101562.84;;;28.54;35.72
65329;BME280;51941;52.210;5.158;2023-06-10T10:26:14;101552.59;;;28.51;35.57
65329;BME280;51941;52.210;5.158;2023-06-10T10:28:44;101560.56;;;28.56;35.17
65329;BME280;51941;52.210;5.158;2023-06-10T10:31:15;101567.41;;;28.62;35.67
65329;BME280;51941;52.210;5.158;2023-06-10T10:33:51;101559.25;;;28.62;35.36
65329;BME280;51941;52.210;5.158;2023-06-10T10:36:19;101560.84;;;28.63;35.48
65329;BME280;51941;52.210;5.158;2023-06-10T10:38:47;101557.31;;;28.63;35.10
65329;BME280;51941;52.210;5.158;2023-06-10T10:41:15;101558.44;;;28.62;34.47
65329;BME280;51941;52.210;5.158;2023-06-10T10:43:43;101557.75;;;28.65;34.34
65329;BME280;51941;52.210;5.158;2023-06-10T10:46:12;101550.72;;;28.64;35.00
65329;BME280;51941;52.210;5.158;2023-06-10T10:48:39;101545.63;;;28.74;34.99
65329;BME280;51941;52.210;5.158;2023-06-10T10:51:07;101549.75;;;28.80;34.53
65329;BME280;51941;52.210;5.158;2023-06-10T10:53:34;101551.78;;;28.83;34.52
65329;BME280;51941;52.210;5.158;2023-06-10T10:56:07;101552.50;;;28.80;33.90
65329;BME280;51941;52.210;5.158;2023-06-10T10:58:35;101545.63;;;28.74;33.58
65329;BME280;51941;52.210;5.158;2023-06-10T11:01:10;101540.19;;;28.74;33.60
65329;BME280;51941;52.210;5.158;2023-06-10T11:03:42;101541.59;;;28.80;33.77
65329;BME280;51941;52.210;5.158;2023-06-10T11:06:13;101533.97;;;28.86;33.01
65329;BME280;51941;52.210;5.158;2023-06-10T11:08:46;101527.34;;;28.96;33.11
65329;BME280;51941;52.210;5.158;2023-06-10T11:11:20;101527.56;;;29.03;33.44
65329;BME280;51941;52.210;5.158;2023-06-10T11:14:06;101531.31;;;29.10;33.16
65329;BME280;51941;52.210;5.158;2023-06-10T11:16:39;101528.38;;;29.03;32.21
65329;BME280;51941;52.210;5.158;2023-06-10T11:19:06;101522.34;;;29.10;31.58
65329;BME280;51941;52.210;5.158;2023-06-10T11:21:43;101531.66;;;29.09;31.81
65329;BME280;51941;52.210;5.158;2023-06-10T11:24:12;101526.34;;;29.12;32.82
65329;BME280;51941;52.210;5.158;2023-06-10T11:26:44;101516.69;;;29.15;33.02
65329;BME280;51941;52.210;5.158;2023-06-10T11:29:10;101510.53;;;29.06;33.13
65329;BME280;51941;52.210;5.158;2023-06-10T11:31:45;101525.19;;;29.13;33.29
65329;BME280;51941;52.210;5.158;2023-06-10T11:34:13;101526.56;;;29.19;33.10
65329;BME280;51941;52.210;5.158;2023-06-10T11:36:41;101523.63;;;29.24;32.77
65329;BME280;51941;52.210;5.158;2023-06-10T11:39:11;101521.78;;;29.28;31.60
65329;BME280;51941;52.210;5.158;2023-06-10T11:41:38;101515.22;;;29.29;31.96
65329;BME280;51941;52.210;5.158;2023-06-10T11:44:10;101510.09;;;29.28;31.56
65329;BME280;51941;52.210;5.158;2023-06-10T11:46:37;101511.56;;;29.38;31.34
65329;BME280;51941;52.210;5.158;2023-06-10T11:49:05;101499.75;;;29.34;30.96
65329;BME280;51941;52.210;5.158;2023-06-10T11:51:33;101510.44;;;29.39;31.07
65329;BME280;51941;52.210;5.158;2023-06-10T11:54:01;101508.97;;;29.29;31.90
65329;BME280;51941;52.210;5.158;2023-06-10T11:56:29;101509.19;;;29.24;32.06
65329;BME280;51941;52.210;5.158;2023-06-10T11:59:00;101503.97;;;29.31;32.10
65329;BME280;51941;52.210;5.158;2023-06-10T12:01:32;101501.44;;;29.38;31.66
65329;BME280;51941;52.210;5.158;2023-06-10T12:04:03;101502.13;;;29.47;31.95
65329;BME280;51941;52.210;5.158;2023-06-10T12:06:41;101505.09;;;29.54;30.83
65329;BME280;51941;52.210;5.158;2023-06-10T12:09:14;101498.50;;;29.55;30.88
65329;BME280;51941;52.210;5.158;2023-06-10T12:11:40;101500.66;;;29.50;30.84
65329;BME280;51941;52.210;5.158;2023-06-10T12:14:11;101488.94;;;29.49;30.35
65329;BME280;51941;52.210;5.158;2023-06-10T12:16:39;101479.06;;;29.45;29.97
65329;BME280;51941;52.210;5.158;2023-06-10T12:19:06;101498.06;;;29.53;30.16
65329;BME280;51941;52.210;5.158;2023-06-10T12:21:33;101477.25;;;29.61;29.75
65329;BME280;51941;52.210;5.158;2023-06-10T12:24:06;101484.88;;;29.67;30.41
65329;BME280;51941;52.210;5.158;2023-06-10T12:26:37;101485.06;;;29.75;30.38
65329;BME280;51941;52.210;5.158;2023-06-10T12:29:18;101473.28;;;29.58;30.29
65329;BME280;51941;52.210;5.158;2023-06-10T12:32:04;101475.81;;;29.51;30.45
65329;BME280;51941;52.210;5.158;2023-06-10T12:34:34;101477.81;;;29.54;29.97
65329;BME280;51941;52.210;5.158;2023-06-10T12:37:03;101475.66;;;29.60;30.13
65329;BME280;51941;52.210;5.158;2023-06-10T12:39:31;101478.47;;;29.76;29.89
65329;BME280;51941;52.210;5.158;2023-06-10T12:41:58;101479.34;;;29.80;29.54
65329;BME280;51941;52.210;5.158;2023-06-10T12:44:30;101475.41;;;29.77;30.08
65329;BME280;51941;52.210;5.158;2023-06-10T12:46:57;101463.91;;;29.84;29.64
65329;BME280;51941;52.210;5.158;2023-06-10T12:49:25;101470.94;;;29.85;29.35
65329;BME280;51941;52.210;5.158;2023-06-10T12:51:52;101468.34;;;29.76;29.35
65329;BME280;51941;52.210;5.158;2023-06-10T12:54:18;101469.34;;;29.84;29.80
65329;BME280;51941;52.210;5.158;2023-06-10T12:56:45;101469.66;;;29.94;29.40